Time;durP1;ratioP1;P1;durP2;ratioP2;P2;SDS_P1;SDS_P2;PMS_P1;PMS_P2;Temp;Humidity;BMP_temperature;BMP_pressure;BME280_temperature;BME280_humidity;BME280_pressure;Samples;Min_cycle;Max_cycle;Signal;HPM_P1;HPM_P2
2022/05/23 00:02:58;;;;;;;9.93;7.43;;;;;;;;;;10405274;28;20021;-72
2022/05/23 00:07:59;;;;;;;12.43;7.07;;;;;;;;;;10404651;28;20023;-78
2022/05/23 00:12:59;;;;;;;12.02;6.65;;;;;;;;;;10405297;28;20032;-74
2022/05/23 00:18:00;;;;;;;13.88;7.97;;;;;;;;;;10403809;28;20106;-75
2022/05/23 00:23:00;;;;;;;10.43;6.90;;;;;;;;;;10404109;28;20405;-76
2022/05/23 00:28:00;;;;;;;10.80;7.72;;;;;;;;;;10403977;28;20087;-74
2022/05/23 00:38:20;;;;;;;11.90;8.27;;;;;;;;;;10404320;28;20049;-74
2022/05/23 00:43:22;;;;;;;13.10;8.07;;;;;;;;;;10403436;28;20022;-80
2022/05/23 00:48:24;;;;;;;8.68;7.55;;;;;;;;;;10403737;28;20026;-76
2022/05/23 00:53:35;;;;;;;15.15;7.78;;;;;;;;;;10404541;28;20021;-74
2022/05/23 00:58:40;;;;;;;11.18;7.68;;;;;;;;;;10403828;28;20065;-77
2022/05/23 01:03:40;;;;;;;13.43;7.70;;;;;;;;;;10401996;28;20017;-73
2022/05/23 01:08:41;;;;;;;9.68;7.30;;;;;;;;;;10402081;28;20025;-76
2022/05/23 01:13:42;;;;;;;11.95;7.75;;;;;;;;;;10404505;28;20075;-78
2022/05/23 01:18:42;;;;;;;11.03;7.57;;;;;;;;;;10402150;28;20571;-73
2022/05/23 01:23:50;;;;;;;11.50;7.47;;;;;;;;;;10403501;28;20271;-73
2022/05/23 01:28:51;;;;;;;10.65;8.05;;;;;;;;;;10403094;28;20090;-73
2022/05/23 01:33:51;;;;;;;12.13;8.80;;;;;;;;;;10401446;28;20540;-78
2022/05/23 01:38:51;;;;;;;9.80;7.72;;;;;;;;;;10401627;28;20042;-77
2022/05/23 01:43:53;;;;;;;13.13;8.18;;;;;;;;;;10403058;28;20113;-77
2022/05/23 01:48:53;;;;;;;15.60;7.55;;;;;;;;;;10401871;28;20064;-77
2022/05/23 01:53:53;;;;;;;14.52;7.13;;;;;;;;;;10400821;28;20120;-75
2022/05/23 02:04:13;;;;;;;10.27;6.72;;;;;;;;;;10402477;28;20025;-80
2022/05/23 02:09:13;;;;;;;11.90;6.85;;;;;;;;;;10400429;28;20021;-77
2022/05/23 02:14:13;;;;;;;10.18;6.45;;;;;;;;;;10401179;28;20504;-80
2022/05/23 02:19:14;;;;;;;11.43;6.70;;;;;;;;;;10399395;28;20526;-73
2022/05/23 02:24:14;;;;;;;11.10;6.17;;;;;;;;;;10400448;28;20083;-80
2022/05/23 02:29:15;;;;;;;11.27;6.85;;;;;;;;;;10397856;28;20021;-75
2022/05/23 02:34:15;;;;;;;8.93;6.38;;;;;;;;;;10398156;28;20025;-74
2022/05/23 02:39:16;;;;;;;18.77;7.07;;;;;;;;;;10398722;28;20133;-72
2022/05/23 02:44:16;;;;;;;12.77;7.70;;;;;;;;;;10398158;28;20451;-73
2022/05/23 02:49:18;;;;;;;11.50;7.00;;;;;;;;;;10399810;28;20021;-74
2022/05/23 02:54:18;;;;;;;12.73;7.60;;;;;;;;;;10400164;28;20041;-80
2022/05/23 02:59:18;;;;;;;11.52;7.45;;;;;;;;;;10398050;28;20080;-78
2022/05/23 03:04:19;;;;;;;10.90;6.90;;;;;;;;;;10398567;28;20084;-73
2022/05/23 03:09:19;;;;;;;12.23;7.25;;;;;;;;;;10400318;28;20456;-79
2022/05/23 03:14:19;;;;;;;11.25;7.25;;;;;;;;;;10399309;28;20135;-78
2022/05/23 03:19:19;;;;;;;8.52;6.45;;;;;;;;;;10398752;28;20041;-73
2022/05/23 03:29:39;;;;;;;13.63;6.38;;;;;;;;;;10399935;28;20033;-76
2022/05/23 03:34:39;;;;;;;8.65;6.45;;;;;;;;;;10398415;28;20025;-75
2022/05/23 03:39:39;;;;;;;9.63;6.15;;;;;;;;;;10397759;28;20083;-74
2022/05/23 03:44:40;;;;;;;9.88;6.60;;;;;;;;;;10404021;28;20024;-74
2022/05/23 03:49:40;;;;;;;8.52;6.40;;;;;;;;;;10404613;28;20029;-74
2022/05/23 03:54:40;;;;;;;10.93;6.88;;;;;;;;;;10404423;28;20026;-73
2022/05/23 03:59:41;;;;;;;12.27;7.75;;;;;;;;;;10405602;28;20107;-73
2022/05/23 04:04:41;;;;;;;14.03;6.77;;;;;;;;;;10403935;28;20029;-75
2022/05/23 04:09:42;;;;;;;10.55;6.68;;;;;;;;;;10403957;28;20029;-71
2022/05/23 04:14:42;;;;;;;8.25;6.13;;;;;;;;;;10404455;28;20022;-67
2022/05/23 04:19:42;;;;;;;11.63;7.03;;;;;;;;;;10403738;28;20037;-78
2022/05/23 04:24:43;;;;;;;10.97;7.63;;;;;;;;;;10386537;28;20022;-74
2022/05/23 04:29:43;;;;;;;13.35;7.15;;;;;;;;;;10403923;28;20033;-73
2022/05/23 04:40:03;;;;;;;14.10;6.60;;;;;;;;;;10403302;28;20136;-73
2022/05/23 04:45:03;;;;;;;15.25;6.85;;;;;;;;;;10402583;28;20026;-75
2022/05/23 04:50:04;;;;;;;11.27;8.07;;;;;;;;;;10402789;28;20024;-78
2022/05/23 04:55:04;;;;;;;12.43;7.78;;;;;;;;;;10401406;28;20155;-77
2022/05/23 05:00:09;;;;;;;9.82;5.78;;;;;;;;;;10400653;28;20068;-73
2022/05/23 05:05:09;;;;;;;12.18;6.55;;;;;;;;;;10399754;28;20517;-73
2022/05/23 05:10:10;;;;;;;11.38;6.28;;;;;;;;;;10399821;28;20112;-73
2022/05/23 05:15:10;;;;;;;13.55;7.07;;;;;;;;;;10399862;28;20021;-73
2022/05/23 05:20:11;;;;;;;9.48;5.95;;;;;;;;;;10400170;28;20022;-76
2022/05/23 05:25:12;;;;;;;14.07;6.65;;;;;;;;;;10399387;28;20028;-74
2022/05/23 05:30:15;;;;;;;13.48;8.25;;;;;;;;;;10398229;28;20116;-74
2022/05/23 05:35:15;;;;;;;8.25;4.85;;;;;;;;;;10399570;28;20037;-74
2022/05/23 05:40:19;;;;;;;10.23;4.70;;;;;;;;;;10398608;28;20541;-74
2022/05/23 05:45:30;;;;;;;7.88;3.75;;;;;;;;;;10400072;28;20049;-70
2022/05/23 05:50:33;;;;;;;10.73;3.50;;;;;;;;;;10400924;28;20025;-72
2022/05/23 05:55:34;;;;;;;10.05;3.00;;;;;;;;;;10399314;28;20032;-78
2022/05/23 06:00:34;;;;;;;6.05;3.28;;;;;;;;;;10400338;28;20025;-74
2022/05/23 06:11:23;;;;;;;5.63;2.63;;;;;;;;;;10398729;28;20071;-78
2022/05/23 06:16:14;;;;;;;18.33;6.82;;;;;;;;;;10400402;28;20107;-76
2022/05/23 06:21:14;;;;;;;11.40;4.05;;;;;;;;;;10398077;28;20018;-73
2022/05/23 06:26:15;;;;;;;5.53;2.17;;;;;;;;;;10397749;28;20018;-79
2022/05/23 06:31:16;;;;;;;9.13;2.00;;;;;;;;;;10399827;28;20401;-79
2022/05/23 06:36:18;;;;;;;8.77;1.80;;;;;;;;;;10398002;28;20037;-72
2022/05/23 06:41:18;;;;;;;7.63;1.55;;;;;;;;;;10397747;28;20029;-77
2022/05/23 06:46:18;;;;;;;6.83;1.57;;;;;;;;;;10398208;28;20033;-79
2022/05/23 06:51:19;;;;;;;5.07;1.98;;;;;;;;;;10397223;28;20021;-78
2022/05/23 06:56:19;;;;;;;1.70;1.23;;;;;;;;;;10397273;28;20022;-79
2022/05/23 07:01:19;;;;;;;3.97;1.30;;;;;;;;;;10397403;28;20018;-80
2022/05/23 07:17:00;;;;;;;6.32;1.75;;;;;;;;;;10400365;28;20462;-76
2022/05/23 07:22:02;;;;;;;6.93;1.92;;;;;;;;;;10404948;28;20116;-78
2022/05/23 07:27:02;;;;;;;6.93;1.83;;;;;;;;;;10403678;28;20037;-75
2022/05/23 07:32:05;;;;;;;2.83;1.25;;;;;;;;;;10395113;28;20029;-72
2022/05/23 07:37:05;;;;;;;4.57;1.90;;;;;;;;;;10392834;28;20132;-72
2022/05/23 07:42:07;;;;;;;3.30;1.73;;;;;;;;;;10383588;28;20121;-72
2022/05/23 07:47:07;;;;;;;4.13;1.75;;;;;;;;;;10409199;23;20053;-75
2022/05/23 07:52:07;;;;;;;5.40;1.77;;;;;;;;;;10407092;28;20030;-73
2022/05/23 08:02:27;;;;;;;5.15;1.52;;;;;;;;;;10395543;28;20037;-72
2022/05/23 08:07:28;;;;;;;3.57;1.27;;;;;;;;;;10389651;28;20033;-74
2022/05/23 08:12:29;;;;;;;3.40;1.40;;;;;;;;;;10396253;28;20083;-70
2022/05/23 08:17:29;;;;;;;2.15;1.13;;;;;;;;;;10394713;28;20038;-77
2022/05/23 08:22:30;;;;;;;3.22;1.25;;;;;;;;;;10398503;28;20029;-73
2022/05/23 08:27:31;;;;;;;1.85;1.10;;;;;;;;;;10397941;28;20116;-71
2022/05/23 08:32:31;;;;;;;2.95;1.90;;;;;;;;;;10395418;28;20029;-72
2022/05/23 08:37:31;;;;;;;3.58;1.67;;;;;;;;;;10397314;28;20033;-75
2022/05/23 08:42:37;;;;;;;3.55;1.13;;;;;;;;;;10392657;28;20056;-72
2022/05/23 08:47:43;;;;;;;1.63;1.20;;;;;;;;;;10399979;28;20049;-75
2022/05/23 08:52:47;;;;;;;2.75;1.33;;;;;;;;;;10391640;28;20033;-75
2022/05/23 08:57:56;;;;;;;8.00;1.35;;;;;;;;;;10377520;28;20029;-75
2022/05/23 09:03:07;;;;;;;3.28;1.50;;;;;;;;;;10404526;28;20025;-71
2022/05/23 09:08:10;;;;;;;3.60;1.67;;;;;;;;;;10405189;28;20053;-73
2022/05/23 09:13:12;;;;;;;4.80;1.30;;;;;;;;;;10404344;28;20401;-76
2022/05/23 09:18:16;;;;;;;8.68;1.45;;;;;;;;;;10404632;28;20025;-72
2022/05/23 09:23:19;;;;;;;3.47;1.02;;;;;;;;;;10404943;28;20026;-72
2022/05/23 09:28:35;;;;;;;5.32;1.40;;;;;;;;;;10404592;28;20386;-72
2022/05/23 09:33:42;;;;;;;3.67;0.80;;;;;;;;;;10404739;28;20032;-72
2022/05/23 09:38:51;;;;;;;6.57;1.55;;;;;;;;;;10405087;28;20108;-71
2022/05/23 09:49:11;;;;;;;2.22;2.03;;;;;;;;;;10404913;28;20021;-70
2022/05/23 09:54:13;;;;;;;3.37;1.13;;;;;;;;;;10403681;28;20021;-73
2022/05/23 09:59:20;;;;;;;6.40;2.28;;;;;;;;;;10403825;28;20060;-73
2022/05/23 10:04:27;;;;;;;3.83;1.58;;;;;;;;;;10403558;28;20041;-73
2022/05/23 10:09:35;;;;;;;3.25;1.38;;;;;;;;;;10403291;28;20449;-71
2022/05/23 10:14:40;;;;;;;1.08;0.88;;;;;;;;;;10403029;28;20029;-72
2022/05/23 10:19:41;;;;;;;2.00;1.20;;;;;;;;;;10402341;28;20029;-73
2022/05/23 10:24:47;;;;;;;4.23;0.97;;;;;;;;;;10402469;28;20473;-73
2022/05/23 10:30:01;;;;;;;1.90;1.10;;;;;;;;;;10403732;28;20030;-76
2022/05/23 10:35:08;;;;;;;1.77;0.80;;;;;;;;;;10404104;28;20124;-75
2022/05/23 10:45:36;;;;;;;1.15;0.60;;;;;;;;;;10403349;28;20057;-76
2022/05/23 10:50:55;;;;;;;1.50;0.75;;;;;;;;;;10402401;28;20040;-74
2022/05/23 10:56:02;;;;;;;2.75;1.42;;;;;;;;;;10401688;28;20108;-76
2022/05/23 11:01:22;;;;;;;2.35;0.98;;;;;;;;;;10401992;28;20018;-78
2022/05/23 11:06:33;;;;;;;2.13;1.08;;;;;;;;;;10402071;28;20533;-76
2022/05/23 11:11:40;;;;;;;1.67;1.13;;;;;;;;;;10401602;28;20515;-73
2022/05/23 11:16:55;;;;;;;3.55;0.90;;;;;;;;;;10401528;28;20021;-70
2022/05/23 11:22:17;;;;;;;1.40;1.08;;;;;;;;;;10401134;28;20026;-71
2022/05/23 11:38:02;;;;;;;1.77;1.25;;;;;;;;;;10401481;28;20053;-72
2022/05/23 11:43:03;;;;;;;5.57;1.13;;;;;;;;;;10400756;28;20125;-71
2022/05/23 11:48:24;;;;;;;2.78;1.23;;;;;;;;;;10384311;28;20508;-71
2022/05/23 11:53:28;;;;;;;3.90;1.08;;;;;;;;;;10400206;28;20492;-74
2022/05/23 11:58:43;;;;;;;1.23;0.93;;;;;;;;;;10400671;28;20024;-75
2022/05/23 12:03:47;;;;;;;11.95;2.88;;;;;;;;;;10403857;28;20033;-72
2022/05/23 12:08:59;;;;;;;0.82;0.75;;;;;;;;;;10407839;28;20032;-72
2022/05/23 12:14:12;;;;;;;6.68;1.60;;;;;;;;;;10407742;28;20376;-72
2022/05/23 12:19:31;;;;;;;2.53;1.60;;;;;;;;;;10407439;28;20187;-72
2022/05/23 12:24:32;;;;;;;3.45;1.20;;;;;;;;;;10408621;28;20468;-73
2022/05/23 12:29:34;;;;;;;6.88;1.55;;;;;;;;;;10408258;28;20083;-72
2022/05/23 12:34:40;;;;;;;4.32;1.60;;;;;;;;;;10407442;28;20048;-71
2022/05/23 12:39:49;;;;;;;3.08;1.65;;;;;;;;;;10406871;28;20029;-72
2022/05/23 12:45:08;;;;;;;5.75;1.63;;;;;;;;;;10406756;28;20540;-76
2022/05/23 12:50:27;;;;;;;4.35;1.50;;;;;;;;;;10406217;28;20026;-74
2022/05/23 12:55:48;;;;;;;1.55;1.20;;;;;;;;;;10406604;28;20025;-72
2022/05/23 13:00:56;;;;;;;2.08;1.45;;;;;;;;;;10406465;28;20029;-71
2022/05/23 13:05:56;;;;;;;6.38;1.67;;;;;;;;;;10406046;28;20017;-73
2022/05/23 13:11:02;;;;;;;3.63;1.60;;;;;;;;;;10406058;28;20444;-72
2022/05/23 13:16:17;;;;;;;9.25;1.58;;;;;;;;;;10405392;28;20017;-74
2022/05/23 13:26:36;;;;;;;5.88;1.90;;;;;;;;;;10406240;28;20021;-72
2022/05/23 13:31:36;;;;;;;2.13;1.83;;;;;;;;;;10404970;28;20017;-72
2022/05/23 13:36:41;;;;;;;1.52;1.15;;;;;;;;;;10404814;28;20045;-71
2022/05/23 13:41:43;;;;;;;3.60;1.67;;;;;;;;;;10404720;28;20017;-73
2022/05/23 13:46:43;;;;;;;5.88;2.17;;;;;;;;;;10403839;28;20132;-72
2022/05/23 13:51:47;;;;;;;3.03;1.73;;;;;;;;;;10403392;28;20489;-72
2022/05/23 13:56:48;;;;;;;2.55;1.23;;;;;;;;;;10404334;28;20584;-74
2022/05/23 14:01:51;;;;;;;4.22;1.65;;;;;;;;;;10403460;28;20021;-72
2022/05/23 14:06:54;;;;;;;4.43;2.03;;;;;;;;;;10405774;28;20025;-72
2022/05/23 14:11:56;;;;;;;3.25;1.52;;;;;;;;;;10404981;28;20416;-72
2022/05/23 14:17:02;;;;;;;3.60;1.20;;;;;;;;;;10402904;28;20025;-73
2022/05/23 14:22:14;;;;;;;2.90;1.30;;;;;;;;;;10402603;28;20104;-72
2022/05/23 14:27:20;;;;;;;6.38;1.45;;;;;;;;;;10403784;28;20519;-72
2022/05/23 14:32:23;;;;;;;3.35;1.90;;;;;;;;;;10402321;28;20065;-72
2022/05/23 14:37:23;;;;;;;12.85;1.98;;;;;;;;;;10386040;28;20128;-72
2022/05/23 14:42:27;;;;;;;5.57;1.60;;;;;;;;;;10386184;28;20692;-74
2022/05/23 14:47:27;;;;;;;4.05;1.65;;;;;;;;;;10401725;28;20056;-71
2022/05/23 14:52:36;;;;;;;8.40;2.15;;;;;;;;;;10402021;28;20032;-72
2022/05/23 15:02:56;;;;;;;2.38;1.42;;;;;;;;;;10403287;28;20029;-70
2022/05/23 15:08:00;;;;;;;1.60;1.48;;;;;;;;;;10401464;28;20026;-72
2022/05/23 15:13:01;;;;;;;4.93;2.20;;;;;;;;;;10401659;28;20029;-72
2022/05/23 15:18:01;;;;;;;3.47;1.80;;;;;;;;;;10401226;28;20405;-72
2022/05/23 15:23:02;;;;;;;2.45;1.80;;;;;;;;;;10401165;28;20025;-72
2022/05/23 15:28:03;;;;;;;4.63;2.10;;;;;;;;;;10400914;28;20459;-79
2022/05/23 15:33:03;;;;;;;4.97;1.80;;;;;;;;;;10400932;28;20043;-73
2022/05/23 15:38:04;;;;;;;5.22;1.92;;;;;;;;;;10403449;28;20048;-73
2022/05/23 15:43:05;;;;;;;3.10;2.00;;;;;;;;;;10410037;28;20116;-72
2022/05/23 15:48:06;;;;;;;3.50;2.08;;;;;;;;;;10408520;28;20493;-71
2022/05/23 15:53:07;;;;;;;7.57;3.45;;;;;;;;;;10409633;28;20451;-71
2022/05/23 15:58:09;;;;;;;9.07;3.30;;;;;;;;;;10407914;28;20588;-72
2022/05/23 16:03:09;;;;;;;8.55;3.60;;;;;;;;;;10409619;28;20351;-75
2022/05/23 16:08:10;;;;;;;7.38;3.28;;;;;;;;;;10408044;28;20476;-72
2022/05/23 16:13:13;;;;;;;7.37;3.60;;;;;;;;;;10407716;28;20018;-72
2022/05/23 16:18:14;;;;;;;6.03;3.63;;;;;;;;;;10407583;28;20055;-72
2022/05/23 16:23:14;;;;;;;5.93;3.15;;;;;;;;;;10408861;28;20023;-76
2022/05/23 16:28:15;;;;;;;8.02;2.55;;;;;;;;;;10407073;28;20567;-79
2022/05/23 16:38:34;;;;;;;5.60;2.78;;;;;;;;;;10407247;28;20049;-75
2022/05/23 16:43:34;;;;;;;2.58;2.35;;;;;;;;;;10406258;28;20493;-71
2022/05/23 16:48:35;;;;;;;6.80;2.70;;;;;;;;;;10405587;28;20037;-73
2022/05/23 16:53:35;;;;;;;7.07;3.07;;;;;;;;;;10406235;28;20083;-77
2022/05/23 16:58:37;;;;;;;6.00;2.57;;;;;;;;;;10405946;28;20029;-73
2022/05/23 17:03:38;;;;;;;6.15;2.38;;;;;;;;;;10406491;28;20024;-73
2022/05/23 17:08:38;;;;;;;5.43;3.05;;;;;;;;;;10405569;28;20033;-71
2022/05/23 17:13:38;;;;;;;4.57;2.80;;;;;;;;;;10389775;28;20099;-72
2022/05/23 17:18:39;;;;;;;4.80;2.97;;;;;;;;;;10405692;28;20033;-75
2022/05/23 17:23:40;;;;;;;5.43;2.88;;;;;;;;;;10405021;28;20021;-75
2022/05/23 17:28:41;;;;;;;3.75;2.78;;;;;;;;;;10404864;28;20513;-71
2022/05/23 17:33:41;;;;;;;9.67;2.77;;;;;;;;;;10404727;28;20032;-72
2022/05/23 17:38:41;;;;;;;4.32;2.58;;;;;;;;;;10404435;28;20021;-70
2022/05/23 17:43:42;;;;;;;5.40;3.07;;;;;;;;;;10404521;28;20395;-71
2022/05/23 17:48:42;;;;;;;7.27;3.27;;;;;;;;;;10404045;28;20033;-72
2022/05/23 17:53:42;;;;;;;5.47;2.63;;;;;;;;;;10387958;28;20437;-72
2022/05/23 17:58:43;;;;;;;10.65;3.05;;;;;;;;;;10405031;28;20033;-73
2022/05/23 18:03:43;;;;;;;5.00;3.00;;;;;;;;;;10403095;28;20485;-71
2022/05/23 18:08:44;;;;;;;5.32;2.85;;;;;;;;;;10403562;28;20021;-73
2022/05/23 18:19:09;;;;;;;9.77;3.10;;;;;;;;;;10424960;23;20132;-73
2022/05/23 18:24:09;;;;;;;8.32;3.58;;;;;;;;;;10403208;28;20025;-71
2022/05/23 18:29:10;;;;;;;5.78;4.18;;;;;;;;;;10404201;28;20013;-71
2022/05/23 18:34:10;;;;;;;6.15;3.53;;;;;;;;;;10402669;28;20017;-69
2022/05/23 18:39:12;;;;;;;7.15;4.60;;;;;;;;;;10402498;28;20025;-72
2022/05/23 18:44:14;;;;;;;6.45;3.20;;;;;;;;;;10402691;28;20104;-73
2022/05/23 18:54:33;;;;;;;6.53;4.32;;;;;;;;;;10403595;28;20409;-73
2022/05/23 18:59:34;;;;;;;13.00;4.28;;;;;;;;;;10402194;28;20030;-72
2022/05/23 19:04:34;;;;;;;5.85;3.55;;;;;;;;;;10402152;28;20030;-71
2022/05/23 19:09:35;;;;;;;5.43;3.65;;;;;;;;;;10402954;28;20489;-72
2022/05/23 19:14:36;;;;;;;6.70;3.78;;;;;;;;;;10407888;28;20641;-72
2022/05/23 19:19:36;;;;;;;7.18;3.47;;;;;;;;;;10410129;28;20053;-71
2022/05/23 19:24:38;;;;;;;5.28;2.92;;;;;;;;;;10409848;28;20087;-73
2022/05/23 19:29:39;;;;;;;10.25;3.45;;;;;;;;;;10393464;28;20570;-73
2022/05/23 19:34:39;;;;;;;4.70;3.60;;;;;;;;;;10410890;28;20033;-73
2022/05/23 19:39:40;;;;;;;4.93;3.70;;;;;;;;;;10409242;28;20025;-73
2022/05/23 19:44:40;;;;;;;4.85;3.25;;;;;;;;;;10409588;28;20014;-73
2022/05/23 19:49:41;;;;;;;5.90;3.60;;;;;;;;;;10409368;28;20033;-76
2022/05/23 19:54:41;;;;;;;9.80;3.90;;;;;;;;;;10410195;28;20029;-71
2022/05/23 19:59:45;;;;;;;6.47;3.97;;;;;;;;;;10409211;28;20417;-72
2022/05/23 20:10:04;;;;;;;8.48;4.20;;;;;;;;;;10410312;28;20029;-72
2022/05/23 20:15:23;;;;;;;9.55;4.53;;;;;;;;;;10408499;28;20025;-72
2022/05/23 20:20:25;;;;;;;7.53;4.40;;;;;;;;;;10408333;28;20092;-73
2022/05/23 20:25:25;;;;;;;13.05;4.28;;;;;;;;;;10407564;28;20025;-73
2022/05/23 20:30:27;;;;;;;10.77;4.60;;;;;;;;;;10409795;28;20032;-73
2022/05/23 20:35:27;;;;;;;8.77;4.22;;;;;;;;;;10407324;28;20287;-70
2022/05/23 20:40:27;;;;;;;5.10;3.60;;;;;;;;;;10407458;28;20563;-72
2022/05/23 20:45:28;;;;;;;11.88;4.15;;;;;;;;;;10407152;28;20044;-72
2022/05/23 20:50:29;;;;;;;9.90;4.00;;;;;;;;;;10407286;28;20037;-72
2022/05/23 20:55:30;;;;;;;10.15;3.92;;;;;;;;;;10406909;28;20025;-72
2022/05/23 21:00:30;;;;;;;8.45;4.65;;;;;;;;;;10407484;28;20489;-72
2022/05/23 21:05:30;;;;;;;8.20;3.55;;;;;;;;;;10406782;28;20025;-72
2022/05/23 21:10:32;;;;;;;6.97;3.65;;;;;;;;;;10406013;28;20034;-73
2022/05/23 21:15:34;;;;;;;5.53;4.07;;;;;;;;;;10405853;28;20076;-75
2022/05/23 21:20:35;;;;;;;9.13;4.07;;;;;;;;;;10406123;28;20134;-74
2022/05/23 21:25:38;;;;;;;4.57;3.45;;;;;;;;;;10405773;28;20104;-73
2022/05/23 21:30:40;;;;;;;9.45;4.55;;;;;;;;;;10405265;28;20025;-73
2022/05/23 21:35:40;;;;;;;5.65;3.67;;;;;;;;;;10404551;28;20036;-73
2022/05/23 21:51:19;;;;;;;5.07;3.45;;;;;;;;;;10406375;28;20053;-77
2022/05/23 21:56:19;;;;;;;7.78;3.50;;;;;;;;;;10404238;28;20112;-72
2022/05/23 22:06:39;;;;;;;4.68;3.15;;;;;;;;;;10405001;28;20420;-76
2022/05/23 22:11:39;;;;;;;3.63;3.17;;;;;;;;;;10403492;28;20025;-71
2022/05/23 22:16:41;;;;;;;5.47;3.35;;;;;;;;;;10403775;28;20021;-73
2022/05/23 22:21:41;;;;;;;4.40;3.17;;;;;;;;;;10403311;28;20525;-76
2022/05/23 22:26:42;;;;;;;5.63;3.03;;;;;;;;;;10403326;28;20120;-78
2022/05/23 22:31:42;;;;;;;4.25;3.20;;;;;;;;;;10402863;28;20029;-71
2022/05/23 22:36:43;;;;;;;5.30;4.05;;;;;;;;;;10402822;28;20034;-74
2022/05/23 22:41:43;;;;;;;9.15;3.70;;;;;;;;;;10402815;28;20103;-73
2022/05/23 22:46:43;;;;;;;5.75;3.00;;;;;;;;;;10401860;28;20029;-72
2022/05/23 22:51:44;;;;;;;8.50;3.50;;;;;;;;;;10403444;28;20037;-70
2022/05/23 22:56:44;;;;;;;4.45;3.50;;;;;;;;;;10402244;28;20448;-73
2022/05/23 23:01:44;;;;;;;6.00;3.63;;;;;;;;;;10402671;28;20029;-71
2022/05/23 23:06:45;;;;;;;7.15;3.88;;;;;;;;;;10403522;28;20079;-71
2022/05/23 23:11:45;;;;;;;7.75;4.95;;;;;;;;;;10401998;28;20108;-72
2022/05/23 23:16:48;;;;;;;8.77;3.53;;;;;;;;;;10402211;28;20022;-72
2022/05/23 23:21:48;;;;;;;8.75;4.45;;;;;;;;;;10402213;28;20434;-72
2022/05/23 23:26:48;;;;;;;6.20;3.42;;;;;;;;;;10401912;28;20021;-73
2022/05/23 23:31:49;;;;;;;4.32;3.15;;;;;;;;;;10403278;28;20026;-72
2022/05/23 23:42:09;;;;;;;6.75;2.78;;;;;;;;;;10402677;28;20021;-72
2022/05/23 23:47:10;;;;;;;5.13;3.40;;;;;;;;;;10401709;28;20021;-71
2022/05/23 23:52:10;;;;;;;12.20;3.33;;;;;;;;;;10401659;28;20026;-78
2022/05/23 23:57:11;;;;;;;5.45;3.55;;;;;;;;;;10401346;28;20025;-71
